createdAt,value
2019-05-21T05:16:38.000Z,997.66
2019-05-21T05:17:38.001Z,997.81
2019-05-21T05:18:37.949Z,997.73
2019-05-21T05:19:37.927Z,997.72
2019-05-21T05:20:37.901Z,997.66
2019-05-21T05:21:37.877Z,997.68
2019-05-21T05:22:37.851Z,997.74
2019-05-21T05:23:37.831Z,997.74
2019-05-21T05:24:37.804Z,997.78
2019-05-21T05:25:37.780Z,997.85
2019-05-21T05:26:37.755Z,997.78
2019-05-21T05:27:37.733Z,997.8
2019-05-21T05:28:37.707Z,997.84
2019-05-21T05:29:37.686Z,997.9
2019-05-21T05:30:37.661Z,997.9
2019-05-21T05:31:37.638Z,998.06
2019-05-21T05:32:37.732Z,997.91
2019-05-21T05:33:37.918Z,997.85
2019-05-21T05:34:37.567Z,997.91
2019-05-21T05:35:37.543Z,997.9
2019-05-21T05:36:37.521Z,997.88
2019-05-21T05:37:43.498Z,997.98
2019-05-21T05:38:37.473Z,997.98
2019-05-21T05:39:37.451Z,997.99
2019-05-21T05:40:37.427Z,997.93
2019-05-21T05:41:37.402Z,997.98
2019-05-21T05:42:37.381Z,997.96
2019-05-21T05:43:37.358Z,997.98
2019-05-21T05:44:37.335Z,997.99
2019-05-21T05:45:37.312Z,998
2019-05-21T05:46:37.288Z,997.96
2019-05-21T05:47:37.265Z,997.97
2019-05-21T05:48:37.240Z,997.98
2019-05-21T05:49:37.219Z,998.03
2019-05-21T05:50:37.198Z,998.02
2019-05-21T05:51:37.173Z,998.06
2019-05-21T05:52:37.152Z,998.06
2019-05-21T05:53:37.131Z,998.04
2019-05-21T05:54:37.105Z,998.09
2019-05-21T05:55:37.080Z,998.04
2019-05-21T05:56:37.059Z,998.09
2019-05-21T05:57:37.034Z,998.08
2019-05-21T05:58:37.010Z,998.12
2019-05-21T05:59:36.986Z,998.06
2019-05-21T06:00:36.965Z,998.14
2019-05-21T06:01:36.944Z,998.13
2019-05-21T06:02:36.919Z,998.08
2019-05-21T06:03:36.896Z,998.12
2019-05-21T06:04:36.874Z,998.15
2019-05-21T06:05:36.852Z,998.08
2019-05-21T06:06:36.826Z,998.08
2019-05-21T06:07:36.804Z,998.04
2019-05-21T06:08:36.783Z,998.01
2019-05-21T06:09:36.759Z,998.1
2019-05-21T06:10:39.913Z,998.12
2019-05-21T06:11:36.712Z,998.03
2019-05-21T06:12:36.693Z,998.13
2019-05-21T06:13:36.667Z,998.1
2019-05-21T06:14:36.644Z,998.05
2019-05-21T06:15:36.626Z,998.16
2019-05-21T06:16:36.606Z,998.01
2019-05-21T06:17:36.574Z,998.05
2019-05-21T06:18:36.559Z,998.08
2019-05-21T06:19:36.528Z,998.18
2019-05-21T06:20:36.508Z,998.11
2019-05-21T06:21:36.483Z,998.12
2019-05-21T06:22:36.459Z,998.08
2019-05-21T06:23:36.439Z,998.18
2019-05-21T06:24:36.417Z,998.2
2019-05-21T06:25:36.392Z,998.24
2019-05-21T06:26:36.367Z,998.23
2019-05-21T06:27:36.345Z,998.24
2019-05-21T06:28:36.323Z,998.28
2019-05-21T06:29:39.427Z,998.29
2019-05-21T06:30:36.277Z,998.39
2019-05-21T06:31:36.253Z,998.29
2019-05-21T06:32:36.231Z,998.29
2019-05-21T06:33:36.209Z,998.35
2019-05-21T06:34:36.185Z,998.34
2019-05-21T06:35:36.163Z,998.36
2019-05-21T06:36:36.139Z,998.43
2019-05-21T06:37:36.116Z,998.41
2019-05-21T06:38:36.092Z,998.44
2019-05-21T06:39:36.081Z,998.47
2019-05-21T06:40:38.431Z,998.41
2019-05-21T06:41:36.027Z,998.44
2019-05-21T06:42:36.011Z,998.41
2019-05-21T06:43:35.980Z,998.44
2019-05-21T06:44:35.958Z,998.44
2019-05-21T06:45:35.933Z,998.48
2019-05-21T06:46:35.912Z,998.58
2019-05-21T06:47:35.889Z,998.47
2019-05-21T06:48:35.866Z,998.47
2019-05-21T06:49:35.844Z,998.57
2019-05-21T06:50:37.506Z,998.59
2019-05-21T06:51:35.811Z,998.55
2019-05-21T06:52:35.775Z,998.62
2019-05-21T06:53:36.077Z,998.64
2019-05-21T06:54:35.730Z,998.65
2019-05-21T06:55:35.780Z,998.63
2019-05-21T06:56:35.684Z,998.63
2019-05-21T06:57:35.662Z,998.73
2019-05-21T06:58:35.658Z,998.72
2019-05-21T06:59:35.705Z,998.73
2019-05-21T07:00:35.596Z,998.8
2019-05-21T07:01:35.574Z,998.78
2019-05-21T07:02:35.550Z,998.8
2019-05-21T07:03:35.539Z,998.82
2019-05-21T07:04:35.510Z,998.88
2019-05-21T07:05:35.484Z,998.87
2019-05-21T07:06:35.463Z,998.92
2019-05-21T07:07:35.438Z,998.92
2019-05-21T07:08:35.524Z,998.93
2019-05-21T07:09:35.391Z,998.97
2019-05-21T07:10:35.372Z,998.9
2019-05-21T07:11:35.349Z,998.94
2019-05-21T07:12:35.325Z,998.94
2019-05-21T07:13:35.303Z,998.97
2019-05-21T07:14:35.280Z,998.97
2019-05-21T07:15:35.780Z,999
2019-05-21T07:16:35.234Z,998.88
2019-05-21T07:17:35.211Z,998.87
2019-05-21T07:18:35.190Z,998.87
2019-05-21T07:19:35.167Z,998.86
2019-05-21T07:20:35.149Z,998.95
2019-05-21T07:21:35.123Z,998.94
2019-05-21T07:22:35.111Z,998.91
2019-05-21T07:23:35.080Z,999.03
2019-05-21T07:24:35.056Z,998.95
2019-05-21T07:25:35.033Z,998.91
2019-05-21T07:26:35.816Z,998.96
2019-05-21T07:27:34.990Z,998.9
2019-05-21T07:28:35.018Z,998.92
2019-05-21T07:29:34.943Z,998.88
2019-05-21T07:30:34.923Z,998.92
2019-05-21T07:31:34.917Z,998.92
2019-05-21T07:32:34.895Z,998.89
2019-05-21T07:33:34.857Z,998.92
2019-05-21T07:34:34.837Z,998.98
2019-05-21T07:35:34.811Z,998.91
2019-05-21T07:36:34.791Z,999
2019-05-21T07:37:34.767Z,999.07
2019-05-21T07:38:50.167Z,999.01
2019-05-21T07:39:34.723Z,999.01
2019-05-21T07:40:34.724Z,999.11
2019-05-21T07:41:34.689Z,999.02
2019-05-21T07:42:34.664Z,999.08
2019-05-21T07:43:34.697Z,999.05
2019-05-21T07:44:34.613Z,998.97
2019-05-21T07:45:34.589Z,999.04
2019-05-21T07:46:34.567Z,999.06
2019-05-21T07:47:34.546Z,999.08
2019-05-21T07:48:34.523Z,999.11
2019-05-21T07:49:34.504Z,999.15
2019-05-21T07:50:34.482Z,999.12
2019-05-21T07:51:34.462Z,999.2
2019-05-21T07:52:34.436Z,999.29
2019-05-21T07:53:34.416Z,999.28
2019-05-21T07:54:34.623Z,999.27
2019-05-21T07:55:34.650Z,999.28
2019-05-21T07:56:34.349Z,999.27
2019-05-21T07:57:34.533Z,999.31
2019-05-21T07:58:34.509Z,999.31
2019-05-21T07:59:34.373Z,999.43
2019-05-21T08:00:34.261Z,999.32
2019-05-21T08:01:34.238Z,999.35
2019-05-21T08:02:34.220Z,999.4
2019-05-21T08:03:34.213Z,999.44
2019-05-21T08:04:34.215Z,999.48
2019-05-21T08:05:34.154Z,999.44
2019-05-21T08:06:34.131Z,999.46
2019-05-21T08:07:34.109Z,999.38
2019-05-21T08:08:34.087Z,999.43
2019-05-21T08:09:34.064Z,999.4
2019-05-21T08:10:34.043Z,999.41
2019-05-21T08:11:34.020Z,999.45
2019-05-21T08:12:39.211Z,999.42
2019-05-21T08:13:33.977Z,999.47
2019-05-21T08:14:34.013Z,999.43
2019-05-21T08:15:33.934Z,999.42
2019-05-21T08:16:33.911Z,999.46
2019-05-21T08:17:33.892Z,999.46
2019-05-21T08:18:33.869Z,999.47
2019-05-21T08:19:34.186Z,999.43
2019-05-21T08:20:33.824Z,999.51
2019-05-21T08:21:33.802Z,999.53
2019-05-21T08:22:33.779Z,999.56
2019-05-21T08:23:33.797Z,999.55
2019-05-21T08:24:33.740Z,999.57
2019-05-21T08:25:33.717Z,999.51
2019-05-21T08:26:33.696Z,999.51
2019-05-21T08:27:33.731Z,999.61
2019-05-21T08:28:33.757Z,999.63
2019-05-21T08:29:33.843Z,999.6
2019-05-21T08:30:33.611Z,999.67
2019-05-21T08:31:33.587Z,999.66
2019-05-21T08:32:33.566Z,999.67
2019-05-21T08:33:33.544Z,999.71
2019-05-21T08:34:33.521Z,999.76
2019-05-21T08:35:33.502Z,999.74
2019-05-21T08:36:33.479Z,999.74
2019-05-21T08:37:33.457Z,999.77
2019-05-21T08:38:33.788Z,999.78
2019-05-21T08:39:33.488Z,999.86
2019-05-21T08:40:33.421Z,999.8
2019-05-21T08:41:33.788Z,999.83
2019-05-21T08:42:33.350Z,999.9
2019-05-21T08:43:33.328Z,999.83
2019-05-21T08:44:33.308Z,999.84
2019-05-21T08:45:33.283Z,999.89
2019-05-21T08:46:33.273Z,999.88
2019-05-21T08:47:33.239Z,999.83
2019-05-21T08:48:33.216Z,999.83
2019-05-21T08:49:33.195Z,999.85
2019-05-21T08:50:33.176Z,999.91
2019-05-21T08:51:33.152Z,999.8
2019-05-21T08:52:33.131Z,999.92
2019-05-21T08:53:33.109Z,999.87
2019-05-21T08:54:33.120Z,999.86
2019-05-21T08:55:33.078Z,999.84
2019-05-21T08:56:33.043Z,999.85
2019-05-21T08:57:33.025Z,999.85
2019-05-21T08:58:32.998Z,999.88
2019-05-21T08:59:32.976Z,999.85
2019-05-21T09:00:32.955Z,999.91
2019-05-21T09:01:32.935Z,999.87
2019-05-21T09:02:32.911Z,999.92
2019-05-21T09:03:32.892Z,999.85
2019-05-21T09:04:45.664Z,999.94
2019-05-21T09:05:32.845Z,999.89
2019-05-21T09:06:32.823Z,999.95
2019-05-21T09:07:32.801Z,999.95
2019-05-21T09:08:32.782Z,1000
2019-05-21T09:09:48.228Z,999.95
2019-05-21T09:10:32.735Z,999.94
2019-05-21T09:11:32.715Z,999.98
2019-05-21T09:12:32.695Z,999.95
2019-05-21T09:13:32.671Z,999.97
2019-05-21T09:14:32.650Z,1000.02
2019-05-21T09:15:32.630Z,1000.01
2019-05-21T09:16:32.607Z,999.96
2019-05-21T09:17:32.583Z,999.98
2019-05-21T09:18:32.561Z,999.99
2019-05-21T09:19:36.027Z,1000
2019-05-21T09:20:32.520Z,999.99
2019-05-21T09:21:32.498Z,999.96
2019-05-21T09:22:32.475Z,999.95
2019-05-21T09:23:32.455Z,999.94
2019-05-21T09:24:32.462Z,999.96
2019-05-21T09:25:32.410Z,999.87
2019-05-21T09:26:32.390Z,999.95
2019-05-21T09:27:32.369Z,999.91
2019-05-21T09:28:32.346Z,999.9
2019-05-21T09:29:32.324Z,999.89
2019-05-21T09:30:32.306Z,999.88
2019-05-21T09:31:32.283Z,999.91
2019-05-21T09:32:32.263Z,999.92
2019-05-21T09:33:32.242Z,999.94
2019-05-21T09:34:47.322Z,999.97
2019-05-21T09:35:32.198Z,999.95
2019-05-21T09:36:32.177Z,1000.01
2019-05-21T09:37:32.155Z,999.97
2019-05-21T09:38:32.132Z,1000.13
2019-05-21T09:39:32.111Z,1000.06
2019-05-21T09:40:32.090Z,1000
2019-05-21T09:41:32.070Z,1000.04
2019-05-21T09:42:32.050Z,1000.15
2019-05-21T09:43:32.224Z,1000.09
2019-05-21T09:44:32.149Z,1000.02
2019-05-21T09:45:31.986Z,1000.09
2019-05-21T09:46:31.966Z,1000.07
2019-05-21T09:47:32.196Z,1000.08
2019-05-21T09:48:31.921Z,1000.14
2019-05-21T09:49:31.937Z,1000.13
2019-05-21T09:50:31.879Z,1000.14
2019-05-21T09:51:31.861Z,1000.25
2019-05-21T09:52:31.836Z,1000.26
2019-05-21T09:53:31.813Z,1000.24
2019-05-21T09:54:31.792Z,1000.49
2019-05-21T09:55:33.667Z,1000.35
2019-05-21T09:56:31.750Z,1000.32
2019-05-21T09:57:31.727Z,1000.23
2019-05-21T09:58:31.706Z,1000.26
2019-05-21T09:59:31.699Z,1000.25
2019-05-21T10:00:31.664Z,1000.32
2019-05-21T10:01:31.644Z,1000.33
2019-05-21T10:02:31.619Z,1000.34
2019-05-21T10:03:31.599Z,1000.38
2019-05-21T10:04:31.577Z,1000.41
2019-05-21T10:05:31.554Z,1000.37
2019-05-21T10:06:31.533Z,1000.4
2019-05-21T10:07:39.534Z,1000.56
2019-05-21T10:08:31.492Z,1000.36
2019-05-21T10:09:31.475Z,1000.47
2019-05-21T10:10:31.448Z,1000.54
2019-05-21T10:11:31.425Z,1000.58
2019-05-21T10:12:31.401Z,1000.57
2019-05-21T10:13:31.380Z,1000.55
2019-05-21T10:14:34.017Z,1000.48
2019-05-21T10:15:31.335Z,1000.58
2019-05-21T10:16:31.316Z,1000.56
2019-05-21T10:17:31.380Z,1000.51
2019-05-21T10:18:31.270Z,1000.58
2019-05-21T10:19:31.246Z,1000.55
2019-05-21T10:20:31.228Z,1000.61
2019-05-21T10:21:31.205Z,1000.78
2019-05-21T10:22:31.179Z,1000.47
2019-05-21T10:23:31.166Z,1000.58
2019-05-21T10:24:31.137Z,1000.62
2019-05-21T10:25:31.115Z,1000.64
2019-05-21T10:26:31.092Z,1000.62
2019-05-21T10:27:31.071Z,1000.59
2019-05-21T10:28:31.102Z,1000.56
2019-05-21T10:29:31.027Z,1000.63
2019-05-21T10:30:31.006Z,1000.6
2019-05-21T10:31:30.983Z,1000.59
2019-05-21T10:32:30.974Z,1000.7
2019-05-21T10:33:30.947Z,1000.62
2019-05-21T10:34:30.919Z,1000.62
2019-05-21T10:35:30.897Z,1000.66
2019-05-21T10:36:30.874Z,1000.67
2019-05-21T10:37:30.848Z,1000.69
2019-05-21T10:38:30.838Z,1000.7
2019-05-21T10:39:30.806Z,1000.72
2019-05-21T10:40:30.785Z,1000.7
2019-05-21T10:41:30.804Z,1000.7
2019-05-21T10:42:30.748Z,1000.66
2019-05-21T10:43:30.718Z,1000.77
2019-05-21T10:44:30.696Z,1000.76
2019-05-21T10:45:30.674Z,1000.8
2019-05-21T10:46:30.652Z,1000.83
2019-05-21T10:47:30.634Z,1000.88
2019-05-21T10:48:30.608Z,1000.85
2019-05-21T10:49:30.586Z,1000.88
2019-05-21T10:50:30.567Z,1000.82
2019-05-21T10:51:30.545Z,1000.9
2019-05-21T10:52:30.543Z,1000.92
2019-05-21T10:53:30.499Z,1000.98
2019-05-21T10:54:30.555Z,1001.03
2019-05-21T10:55:30.451Z,1000.97
2019-05-21T10:56:45.165Z,1000.96
2019-05-21T10:57:30.421Z,1001.11
2019-05-21T10:58:30.424Z,1001.08
2019-05-21T10:59:30.365Z,1001.01
2019-05-21T11:00:30.342Z,1001.09
2019-05-21T11:01:30.326Z,1001.07
2019-05-21T11:02:30.299Z,1001.07
2019-05-21T11:03:30.276Z,1001.09
2019-05-21T11:04:30.256Z,1001.18
2019-05-21T11:05:30.234Z,1001.24
2019-05-21T11:06:30.212Z,1001.12
2019-05-21T11:07:30.192Z,1001.18
2019-05-21T11:08:30.170Z,1001.18
2019-05-21T11:09:30.150Z,1001.11
2019-05-21T11:10:30.123Z,1001.2
2019-05-21T11:11:30.101Z,1001.08
2019-05-21T11:12:30.080Z,1001.15
2019-05-21T11:13:30.075Z,1001.11
2019-05-21T11:14:30.038Z,1001.14
2019-05-21T11:15:30.119Z,1001.2
2019-05-21T11:16:30.172Z,1001.18
2019-05-21T11:17:29.972Z,1001.26
2019-05-21T11:18:29.946Z,1001.24
2019-05-21T11:19:29.926Z,1001.21
2019-05-21T11:20:29.903Z,1001.27
2019-05-21T11:21:29.887Z,1001.25
2019-05-21T11:22:29.859Z,1001.3
2019-05-21T11:23:29.841Z,1001.33
2019-05-21T11:24:29.817Z,1001.36
2019-05-21T11:25:29.802Z,1001.31
2019-05-21T11:26:29.772Z,1001.35
2019-05-21T11:27:29.751Z,1001.32
2019-05-21T11:28:29.730Z,1001.37
2019-05-21T11:29:29.752Z,1001.41
2019-05-21T11:30:29.686Z,1001.34
2019-05-21T11:31:29.666Z,1001.35
2019-05-21T11:32:29.641Z,1001.34
2019-05-21T11:33:29.619Z,1001.42
2019-05-21T11:34:29.599Z,1001.33
2019-05-21T11:35:29.587Z,1001.41
2019-05-21T11:36:29.556Z,1001.31
2019-05-21T11:37:29.533Z,1001.27
2019-05-21T11:38:39.350Z,1001.31
2019-05-21T11:39:29.490Z,1001.34
2019-05-21T11:40:29.473Z,1001.31
2019-05-21T11:41:29.448Z,1001.37
2019-05-21T11:42:29.427Z,1001.39
2019-05-21T11:43:29.405Z,1001.34
2019-05-21T11:44:29.382Z,1001.35
2019-05-21T11:45:32.560Z,1001.34
2019-05-21T11:46:29.339Z,1001.33
2019-05-21T11:47:29.319Z,1001.37
2019-05-21T11:48:29.296Z,1001.47
2019-05-21T11:49:29.275Z,1001.32
2019-05-21T11:50:29.251Z,1001.28
2019-05-21T11:51:29.246Z,1001.33
2019-05-21T11:52:29.209Z,1001.35
2019-05-21T11:53:31.842Z,1001.32
2019-05-21T11:54:29.168Z,1001.44
2019-05-21T11:55:29.183Z,1001.38
2019-05-21T11:56:29.126Z,1001.3
2019-05-21T11:57:29.101Z,1001.35
2019-05-21T11:58:29.080Z,1001.44
2019-05-21T11:59:29.063Z,1001.47
2019-05-21T12:00:29.081Z,1001.42
2019-05-21T12:01:29.016Z,1001.42
2019-05-21T12:02:28.994Z,1001.46
2019-05-21T12:03:28.974Z,1001.52
2019-05-21T12:04:28.951Z,1001.46
2019-05-21T12:05:28.928Z,1001.57
2019-05-21T12:06:29.048Z,1001.58
2019-05-21T12:07:28.888Z,1001.55
2019-05-21T12:08:28.865Z,1001.65
2019-05-21T12:09:28.845Z,1001.64
2019-05-21T12:10:28.824Z,1001.71
2019-05-21T12:11:28.801Z,1001.65
2019-05-21T12:12:28.781Z,1001.6
2019-05-21T12:13:28.756Z,1001.61
2019-05-21T12:14:28.737Z,1001.68
2019-05-21T12:15:28.715Z,1001.71
2019-05-21T12:16:28.691Z,1001.67
2019-05-21T12:17:28.675Z,1001.67
2019-05-21T12:18:28.649Z,1001.65
2019-05-21T12:19:28.626Z,1001.69
2019-05-21T12:20:36.519Z,1001.71
2019-05-21T12:21:28.582Z,1001.86
2019-05-21T12:22:28.560Z,1001.74
2019-05-21T12:23:28.537Z,1001.8
2019-05-21T12:24:28.517Z,1001.76
2019-05-21T12:25:28.496Z,1001.8
2019-05-21T12:26:28.476Z,1001.85
2019-05-21T12:27:28.538Z,1001.88
2019-05-21T12:28:28.920Z,1001.88
2019-05-21T12:29:28.406Z,1001.86
2019-05-21T12:30:28.478Z,1001.87
2019-05-21T12:31:28.862Z,1001.93
2019-05-21T12:32:28.465Z,1001.94
2019-05-21T12:33:28.459Z,1001.91
2019-05-21T12:34:28.299Z,1001.97
2019-05-21T12:35:28.294Z,1001.97
2019-05-21T12:36:28.256Z,1001.98
2019-05-21T12:37:28.233Z,1001.99
2019-05-21T12:38:28.212Z,1002
2019-05-21T12:39:28.185Z,1002.03
2019-05-21T12:40:28.165Z,1002.07
2019-05-21T12:41:28.141Z,1002.09
2019-05-21T12:42:28.119Z,1002.13
2019-05-21T12:43:28.097Z,1002.07
2019-05-21T12:44:28.077Z,1002.07
2019-05-21T12:45:28.053Z,1002.09
2019-05-21T12:46:28.033Z,1002.06
2019-05-21T12:47:28.011Z,1002.12
2019-05-21T12:48:27.988Z,1002.09
2019-05-21T12:49:27.966Z,1002.13
2019-05-21T12:50:27.944Z,1002.12
2019-05-21T12:51:27.920Z,1002.07
2019-05-21T12:52:27.897Z,1002.15
2019-05-21T12:53:27.945Z,1002.12
2019-05-21T12:54:27.877Z,1002.1
2019-05-21T12:55:27.905Z,1002.15
2019-05-21T12:56:27.809Z,1002.08
2019-05-21T12:57:27.788Z,1002.16
2019-05-21T12:58:27.766Z,1002.2
2019-05-21T12:59:27.744Z,1002.14
2019-05-21T13:00:27.721Z,1002.17
2019-05-21T13:01:27.740Z,1002.16
2019-05-21T13:02:27.718Z,1002.11
2019-05-21T13:03:27.694Z,1002.17
2019-05-21T13:04:27.675Z,1002.2
2019-05-21T13:05:27.612Z,1002.15
2019-05-21T13:06:27.628Z,1002.18
2019-05-21T13:07:27.567Z,1002.22
2019-05-21T13:08:27.587Z,1002.24
2019-05-21T13:09:32.528Z,1002.21
2019-05-21T13:10:27.505Z,1002.34
2019-05-21T13:11:27.481Z,1002.25
2019-05-21T13:12:27.467Z,1002.31
2019-05-21T13:13:27.439Z,1002.25
2019-05-21T13:14:27.419Z,1002.26
2019-05-21T13:15:27.395Z,1002.27
2019-05-21T13:16:27.374Z,1002.3
2019-05-21T13:17:27.351Z,1002.33
2019-05-21T13:18:27.333Z,1002.36
2019-05-21T13:19:27.309Z,1002.38
2019-05-21T13:20:27.291Z,1002.4
2019-05-21T13:21:27.266Z,1002.44
2019-05-21T13:22:27.333Z,1002.42
2019-05-21T13:23:27.263Z,1002.42
2019-05-21T13:24:27.251Z,1002.45
2019-05-21T13:25:27.185Z,1002.47
2019-05-21T13:26:27.160Z,1002.47
2019-05-21T13:27:27.228Z,1002.47
2019-05-21T13:28:27.299Z,1002.45
2019-05-21T13:29:27.097Z,1002.54
2019-05-21T13:30:27.077Z,1002.49
2019-05-21T13:31:27.058Z,1002.56
2019-05-21T13:32:27.034Z,1002.6
2019-05-21T13:33:27.011Z,1002.55
2019-05-21T13:34:26.991Z,1002.59
2019-05-21T13:35:26.982Z,1002.58
2019-05-21T13:36:26.949Z,1002.61
2019-05-21T13:37:26.927Z,1002.6
2019-05-21T13:38:26.907Z,1002.56
2019-05-21T13:39:26.887Z,1002.65
2019-05-21T13:40:26.865Z,1002.62
2019-05-21T13:41:26.843Z,1002.55
2019-05-21T13:42:26.824Z,1002.55
2019-05-21T13:43:26.803Z,1002.52
2019-05-21T13:44:26.783Z,1002.65
2019-05-21T13:45:26.761Z,1002.62
2019-05-21T13:46:26.739Z,1002.64
2019-05-21T13:47:26.717Z,1002.66
2019-05-21T13:48:26.713Z,1002.69
2019-05-21T13:49:26.682Z,1002.63
2019-05-21T13:50:26.655Z,1002.66
2019-05-21T13:51:26.636Z,1002.62
2019-05-21T13:52:26.612Z,1002.64
2019-05-21T13:53:26.593Z,1002.6
2019-05-21T13:54:26.572Z,1002.66
2019-05-21T13:55:26.550Z,1002.66
2019-05-21T13:56:26.530Z,1002.66
2019-05-21T13:57:26.527Z,1002.66
2019-05-21T13:58:26.486Z,1002.67
2019-05-21T13:59:26.535Z,1002.63
2019-05-21T14:00:26.445Z,1002.7
2019-05-21T14:01:39.832Z,1002.71
2019-05-21T14:02:26.402Z,1002.71
2019-05-21T14:03:26.379Z,1002.69
2019-05-21T14:04:26.361Z,1002.66
2019-05-21T14:05:26.337Z,1002.72
2019-05-21T14:06:26.316Z,1002.66
2019-05-21T14:07:26.296Z,1002.69
2019-05-21T14:08:26.273Z,1002.83
2019-05-21T14:09:26.260Z,1002.76
2019-05-21T14:10:26.230Z,1002.71
2019-05-21T14:11:26.209Z,1002.71
2019-05-21T14:12:26.190Z,1002.8
2019-05-21T14:13:26.172Z,1002.78
2019-05-21T14:14:26.147Z,1002.77
2019-05-21T14:15:26.125Z,1002.83
2019-05-21T14:16:26.106Z,1002.79
2019-05-21T14:17:26.081Z,1002.82
2019-05-21T14:18:26.058Z,1002.88
2019-05-21T14:19:26.040Z,1002.88
2019-05-21T14:20:26.018Z,1002.83
2019-05-21T14:21:25.995Z,1002.95
2019-05-21T14:22:25.974Z,1002.86
2019-05-21T14:23:25.954Z,1002.89
2019-05-21T14:24:25.932Z,1002.9
2019-05-21T14:25:25.978Z,1002.91
2019-05-21T14:26:26.172Z,1002.88
2019-05-21T14:27:41.639Z,1002.92
2019-05-21T14:28:25.845Z,1002.91
2019-05-21T14:29:25.825Z,1002.87
2019-05-21T14:30:25.802Z,1002.83
2019-05-21T14:31:25.779Z,1002.94
2019-05-21T14:32:25.762Z,1002.93
2019-05-21T14:33:25.736Z,1002.93
2019-05-21T14:34:25.716Z,1002.95
2019-05-21T14:35:25.693Z,1002.91
2019-05-21T14:36:25.689Z,1002.91
2019-05-21T14:37:25.651Z,1002.91
2019-05-21T14:38:25.628Z,1002.94
2019-05-21T14:39:25.611Z,1002.99
2019-05-21T14:40:31.494Z,1002.97
2019-05-21T14:41:25.570Z,1002.97
2019-05-21T14:42:25.543Z,1002.99
2019-05-21T14:43:25.522Z,1002.97
2019-05-21T14:44:25.581Z,1002.95
2019-05-21T14:45:28.924Z,1002.96
2019-05-21T14:46:25.459Z,1002.99
2019-05-21T14:47:25.436Z,1002.94
2019-05-21T14:48:25.417Z,1003.01
2019-05-21T14:49:25.391Z,1003.01
2019-05-21T14:50:25.414Z,1003
2019-05-21T14:51:25.414Z,1003
2019-05-21T14:52:25.327Z,1002.97
2019-05-21T14:53:25.304Z,1003.03
2019-05-21T14:54:27.100Z,1003.03
2019-05-21T14:55:25.261Z,1003.09
2019-05-21T14:56:25.240Z,1003.07
2019-05-21T14:57:25.222Z,1003.05
2019-05-21T14:58:25.195Z,1003.05
2019-05-21T14:59:25.175Z,1003.08
2019-05-21T15:00:25.155Z,1003.06
2019-05-21T15:01:25.131Z,1003.16
2019-05-21T15:02:25.109Z,1003.19
2019-05-21T15:03:25.713Z,1003.1
2019-05-21T15:04:25.371Z,1003.09
2019-05-21T15:05:25.045Z,1003.08
2019-05-21T15:06:25.026Z,1003.1
2019-05-21T15:07:25.002Z,1003.09
2019-05-21T15:08:24.980Z,1003.1
2019-05-21T15:09:24.961Z,1003.11
2019-05-21T15:10:24.938Z,1003.1
2019-05-21T15:11:24.916Z,1003.09
2019-05-21T15:12:24.896Z,1003.1
2019-05-21T15:13:24.875Z,1003.11
2019-05-21T15:14:24.862Z,1003.09
2019-05-21T15:15:24.830Z,1003.11
2019-05-21T15:16:24.807Z,1003.14
2019-05-21T15:17:24.792Z,1003.12
2019-05-21T15:18:24.764Z,1003.1
2019-05-21T15:19:24.742Z,1003.17
2019-05-21T15:20:24.724Z,1003.16
2019-05-21T15:21:24.701Z,1003.17
2019-05-21T15:22:24.677Z,1003.18
2019-05-21T15:23:24.656Z,1003.21
2019-05-21T15:24:24.634Z,1003.17
2019-05-21T15:25:24.614Z,1003.16
2019-05-21T15:26:24.592Z,1003.16
2019-05-21T15:27:24.569Z,1003.13
2019-05-21T15:28:24.548Z,1003.18
2019-05-21T15:29:24.528Z,1003.26
2019-05-21T15:30:24.505Z,1003.19
2019-05-21T15:31:24.536Z,1003.23
2019-05-21T15:32:25.053Z,1003.29
2019-05-21T15:33:24.439Z,1003.26
2019-05-21T15:34:24.417Z,1003.29
2019-05-21T15:35:24.397Z,1003.22
2019-05-21T15:36:24.417Z,1003.25
2019-05-21T15:37:24.352Z,1003.24
2019-05-21T15:38:24.329Z,1003.24
2019-05-21T15:39:24.311Z,1003.28
2019-05-21T15:40:24.294Z,1003.23
2019-05-21T15:41:24.264Z,1003.25
2019-05-21T15:42:24.243Z,1003.23
2019-05-21T15:43:24.219Z,1003.22
2019-05-21T15:44:24.200Z,1003.21
2019-05-21T15:45:24.175Z,1003.18
2019-05-21T15:46:24.158Z,1003.26
2019-05-21T15:47:24.134Z,1003.22
2019-05-21T15:48:26.470Z,1003.24
2019-05-21T15:49:35.384Z,1003.22
2019-05-21T15:50:24.067Z,1003.18
2019-05-21T15:51:24.043Z,1003.26
2019-05-21T15:52:24.028Z,1003.23
2019-05-21T15:53:24.084Z,1003.27
2019-05-21T15:54:23.983Z,1003.27
2019-05-21T15:55:23.955Z,1003.31
2019-05-21T15:56:23.933Z,1003.27
2019-05-21T15:57:23.912Z,1003.34
2019-05-21T15:58:26.663Z,1003.29
2019-05-21T15:59:23.868Z,1003.31
2019-05-21T16:00:23.846Z,1003.27
2019-05-21T16:01:23.822Z,1003.37
2019-05-21T16:02:23.799Z,1003.36
2019-05-21T16:03:23.780Z,1003.37
2019-05-21T16:04:23.770Z,1003.38
2019-05-21T16:05:23.736Z,1003.41
2019-05-21T16:06:23.711Z,1003.39
2019-05-21T16:07:23.690Z,1003.39
2019-05-21T16:08:23.677Z,1003.44
2019-05-21T16:09:23.646Z,1003.38
2019-05-21T16:10:23.624Z,1003.39
2019-05-21T16:11:28.337Z,1003.38
2019-05-21T16:12:23.599Z,1003.37
2019-05-21T16:13:23.557Z,1003.35
2019-05-21T16:14:23.539Z,1003.33
2019-05-21T16:15:23.514Z,1003.37
2019-05-21T16:16:23.501Z,1003.34
2019-05-21T16:17:23.475Z,1003.36
2019-05-21T16:18:23.449Z,1003.42
2019-05-21T16:19:23.428Z,1003.38
2019-05-21T16:20:23.406Z,1003.4
2019-05-21T16:21:23.383Z,1003.39
2019-05-21T16:22:23.363Z,1003.44
2019-05-21T16:23:23.342Z,1003.45
2019-05-21T16:24:23.325Z,1003.4
2019-05-21T16:25:23.297Z,1003.42
2019-05-21T16:26:23.538Z,1003.37
2019-05-21T16:27:23.254Z,1003.48
2019-05-21T16:28:23.230Z,1003.47
2019-05-21T16:29:23.209Z,1003.48
2019-05-21T16:30:23.188Z,1003.46
2019-05-21T16:31:23.165Z,1003.45
2019-05-21T16:32:23.144Z,1003.5
2019-05-21T16:33:23.122Z,1003.52
2019-05-21T16:34:23.101Z,1003.43
2019-05-21T16:35:23.078Z,1003.48
2019-05-21T16:36:23.056Z,1003.48
2019-05-21T16:37:23.035Z,1003.49
2019-05-21T16:38:23.013Z,1003.45
2019-05-21T16:39:22.990Z,1003.55
2019-05-21T16:40:22.970Z,1003.49
2019-05-21T16:41:24.733Z,1003.56
2019-05-21T16:42:22.926Z,1003.48
2019-05-21T16:43:22.904Z,1003.52
2019-05-21T16:44:22.881Z,1003.52
2019-05-21T16:45:22.861Z,1003.53
2019-05-21T16:46:22.838Z,1003.49
2019-05-21T16:47:22.816Z,1003.5
2019-05-21T16:48:22.794Z,1003.51
2019-05-21T16:49:22.771Z,1003.57
2019-05-21T16:50:22.750Z,1003.53
2019-05-21T16:51:22.728Z,1003.53
2019-05-21T16:52:22.707Z,1003.53
2019-05-21T16:53:22.684Z,1003.52
2019-05-21T16:54:22.662Z,1003.5
2019-05-21T16:55:22.641Z,1003.46
2019-05-21T16:56:22.618Z,1003.5
2019-05-21T16:57:22.595Z,1003.54
2019-05-21T16:58:22.573Z,1003.54
2019-05-21T16:59:22.553Z,1003.52
2019-05-21T17:00:22.531Z,1003.52
2019-05-21T17:01:22.510Z,1003.54
2019-05-21T17:02:22.484Z,1003.55
2019-05-21T17:03:22.462Z,1003.57
2019-05-21T17:04:22.439Z,1003.57
2019-05-21T17:05:22.419Z,1003.54
2019-05-21T17:06:22.398Z,1003.65
2019-05-21T17:07:22.374Z,1003.63
2019-05-21T17:08:22.351Z,1003.6
2019-05-21T17:09:22.328Z,1003.64
2019-05-21T17:10:22.308Z,1003.59
2019-05-21T17:11:22.288Z,1003.58
2019-05-21T17:12:22.262Z,1003.57
2019-05-21T17:13:22.240Z,1003.54
2019-05-21T17:14:22.219Z,1003.56
2019-05-21T17:15:22.195Z,1003.58
2019-05-21T17:16:22.173Z,1003.52
2019-05-21T17:17:22.151Z,1003.56
2019-05-21T17:18:22.133Z,1003.57
2019-05-21T17:19:22.104Z,1003.57
2019-05-21T17:20:22.083Z,1003.61
2019-05-21T17:21:22.060Z,1003.61
2019-05-21T17:22:22.038Z,1003.62
2019-05-21T17:23:22.016Z,1003.66
2019-05-21T17:24:21.997Z,1003.63
2019-05-21T17:25:21.982Z,1003.6
2019-05-21T17:26:21.952Z,1003.66
2019-05-21T17:27:21.927Z,1003.68
2019-05-21T17:28:21.903Z,1003.61
2019-05-21T17:29:21.883Z,1003.63
2019-05-21T17:30:21.920Z,1003.62
2019-05-21T17:31:21.943Z,1003.61
2019-05-21T17:32:22.031Z,1003.62